createdAt,value
2023-03-08T00:01:28.063Z,11.73
2023-03-08T00:03:58.892Z,15.02
2023-03-08T00:06:28.603Z,8.18
2023-03-08T00:08:59.363Z,12.07
2023-03-08T00:11:29.744Z,10.07
2023-03-08T00:13:58.973Z,14.25
2023-03-08T00:16:27.743Z,10.65
2023-03-08T00:18:56.587Z,12.13
2023-03-08T00:21:25.533Z,11.95
2023-03-08T00:23:55.040Z,14.38
2023-03-08T00:26:24.090Z,12.70
2023-03-08T00:28:53.772Z,13.80
2023-03-08T00:31:25.345Z,18.63
2023-03-08T00:33:56.317Z,16.52
2023-03-08T00:36:25.514Z,22.30
2023-03-08T00:38:54.672Z,19.00
2023-03-08T00:41:24.098Z,16.15
2023-03-08T00:43:52.759Z,23.75
2023-03-08T00:46:21.554Z,16.40
2023-03-08T00:48:50.216Z,16.80
2023-03-08T00:51:20.946Z,19.33
2023-03-08T00:53:49.826Z,20.60
2023-03-08T00:56:18.853Z,20.10
2023-03-08T00:58:47.542Z,17.38
2023-03-08T01:01:20.525Z,20.08
2023-03-08T01:06:19.693Z,22.23
2023-03-08T01:08:48.183Z,21.98
2023-03-08T01:11:27.938Z,37.08
2023-03-08T01:13:59.474Z,56.53
2023-03-08T01:16:31.556Z,43.58
2023-03-08T01:19:01.920Z,21.38
2023-03-08T01:21:32.189Z,25.77
2023-03-08T01:24:01.266Z,23.50
2023-03-08T01:26:30.147Z,21.02
2023-03-08T01:28:59.066Z,26.85
2023-03-08T01:31:32.158Z,78.53
2023-03-08T01:34:01.659Z,29.00
2023-03-08T01:36:33.457Z,24.95
2023-03-08T01:39:02.617Z,57.28
2023-03-08T01:41:33.367Z,28.58
2023-03-08T01:44:02.731Z,26.45
2023-03-08T01:46:38.387Z,33.67
2023-03-08T01:49:20.250Z,40.38
2023-03-08T01:52:10.038Z,46.80
2023-03-08T01:54:44.640Z,29.20
2023-03-08T01:57:16.948Z,21.42
2023-03-08T01:59:49.804Z,26.00
2023-03-08T02:02:23.404Z,29.90
2023-03-08T02:04:52.416Z,28.27
2023-03-08T02:07:21.661Z,25.38
2023-03-08T02:09:51.733Z,17.80
2023-03-08T02:12:23.683Z,23.35
2023-03-08T02:14:52.370Z,21.40
2023-03-08T02:17:24.043Z,31.63
2023-03-08T02:20:11.466Z,48.17
2023-03-08T02:22:41.645Z,34.45
2023-03-08T02:25:17.415Z,29.23
2023-03-08T02:27:46.831Z,22.60
2023-03-08T02:30:18.396Z,63.03
2023-03-08T02:32:47.303Z,39.13
2023-03-08T02:35:16.437Z,61.75
2023-03-08T02:37:45.898Z,20.33
2023-03-08T02:40:15.414Z,33.33
2023-03-08T02:42:44.136Z,20.98
2023-03-08T02:45:13.166Z,28.75
2023-03-08T02:47:43.115Z,26.10
2023-03-08T02:50:12.224Z,28.38
2023-03-08T02:52:40.901Z,20.88
2023-03-08T02:55:10.156Z,23.95
2023-03-08T02:57:39.037Z,20.95
2023-03-08T03:00:09.208Z,27.45
2023-03-08T03:02:38.256Z,46.72
2023-03-08T03:05:11.792Z,29.33
2023-03-08T03:07:44.143Z,20.30
2023-03-08T03:10:20.042Z,19.90
2023-03-08T03:12:48.790Z,32.13
2023-03-08T03:15:21.169Z,20.70
2023-03-08T03:17:54.346Z,18.60
2023-03-08T03:20:23.308Z,34.38
2023-03-08T03:22:52.035Z,24.67
2023-03-08T03:25:25.377Z,21.23
2023-03-08T03:27:56.067Z,19.10
2023-03-08T03:30:27.921Z,15.88
2023-03-08T03:32:57.641Z,22.35
2023-03-08T03:35:31.338Z,17.35
2023-03-08T03:38:00.646Z,49.47
2023-03-08T03:40:29.776Z,15.45
2023-03-08T03:43:05.386Z,20.85
2023-03-08T03:45:34.325Z,90.25
2023-03-08T03:48:03.462Z,22.27
2023-03-08T03:50:32.783Z,18.15
2023-03-08T03:53:10.284Z,21.02
2023-03-08T03:55:40.192Z,23.30
2023-03-08T03:58:09.370Z,21.65
2023-03-08T04:00:38.544Z,24.67
2023-03-08T04:03:17.746Z,19.70
2023-03-08T04:05:46.799Z,18.27
2023-03-08T04:08:15.815Z,16.65
2023-03-08T04:10:44.635Z,13.43
2023-03-08T04:13:13.696Z,12.35
2023-03-08T04:15:44.030Z,15.52
2023-03-08T04:18:14.700Z,19.45
2023-03-08T04:20:47.396Z,20.05
2023-03-08T04:23:17.314Z,17.15
2023-03-08T04:25:48.853Z,16.38
2023-03-08T04:28:18.373Z,18.67
2023-03-08T04:30:50.036Z,17.58
2023-03-08T04:33:19.777Z,15.43
2023-03-08T04:35:51.074Z,31.10
2023-03-08T04:38:22.663Z,20.35
2023-03-08T04:41:03.273Z,21.73
2023-03-08T04:43:38.732Z,18.63
2023-03-08T04:46:09.181Z,14.05
2023-03-08T04:48:39.993Z,13.35
2023-03-08T04:51:11.593Z,10.02
2023-03-08T04:53:42.435Z,15.82
2023-03-08T04:56:12.479Z,18.70
2023-03-08T04:58:41.569Z,19.75
2023-03-08T05:01:22.993Z,19.58
2023-03-08T05:03:54.212Z,15.27
2023-03-08T05:06:29.746Z,14.88
2023-03-08T05:08:59.214Z,25.52
2023-03-08T05:11:30.019Z,16.27
2023-03-08T05:14:00.572Z,15.70
2023-03-08T05:16:30.457Z,16.10
2023-03-08T05:18:59.363Z,13.52
2023-03-08T05:21:33.392Z,12.52
2023-03-08T05:24:03.522Z,13.10
2023-03-08T05:26:35.971Z,12.85
2023-03-08T05:29:07.038Z,13.13
2023-03-08T05:31:38.553Z,8.75
2023-03-08T05:34:11.853Z,11.98
2023-03-08T05:36:43.977Z,12.35
2023-03-08T05:39:13.299Z,9.05
2023-03-08T05:41:58.284Z,29.70
2023-03-08T05:44:31.773Z,10.35
2023-03-08T05:47:01.413Z,10.18
2023-03-08T05:49:30.630Z,10.25
2023-03-08T05:51:59.754Z,12.57
2023-03-08T05:54:30.169Z,11.68
2023-03-08T05:57:03.573Z,10.23
2023-03-08T05:59:32.911Z,11.48
2023-03-08T06:02:04.745Z,11.02
2023-03-08T06:04:38.631Z,8.50
2023-03-08T06:07:07.525Z,8.60
2023-03-08T06:09:40.810Z,13.73
2023-03-08T06:12:14.144Z,14.15
2023-03-08T06:14:42.885Z,14.15
2023-03-08T06:17:13.143Z,11.65
2023-03-08T06:19:47.135Z,10.82
2023-03-08T06:22:17.923Z,14.43
2023-03-08T06:24:53.564Z,15.27
2023-03-08T06:27:32.031Z,9.63
2023-03-08T06:30:04.065Z,15.25
2023-03-08T06:32:36.235Z,16.00
2023-03-08T06:35:06.649Z,21.55
2023-03-08T06:37:39.082Z,13.90
2023-03-08T06:40:10.008Z,16.73
2023-03-08T06:42:41.479Z,11.18
2023-03-08T06:45:14.808Z,15.45
2023-03-08T06:47:43.638Z,17.52
2023-03-08T06:50:13.689Z,11.05
2023-03-08T06:52:45.500Z,10.48
2023-03-08T06:55:15.992Z,10.00
2023-03-08T06:57:44.849Z,11.18
2023-03-08T07:00:14.469Z,11.90
2023-03-08T07:02:43.367Z,12.75
2023-03-08T07:05:12.168Z,11.80
2023-03-08T07:07:41.039Z,12.38
2023-03-08T07:10:17.264Z,10.77
2023-03-08T07:12:49.104Z,47.25
2023-03-08T07:15:23.552Z,17.42
2023-03-08T07:17:56.378Z,9.40
2023-03-08T07:20:28.308Z,14.07
2023-03-08T07:22:57.861Z,23.77
2023-03-08T07:25:26.556Z,10.02
2023-03-08T07:27:55.459Z,13.90
2023-03-08T07:30:24.355Z,19.38
2023-03-08T07:32:55.129Z,16.13
2023-03-08T07:35:24.068Z,41.38
2023-03-08T07:37:53.453Z,25.33
2023-03-08T07:40:22.307Z,57.90
2023-03-08T07:42:51.094Z,228.73
2023-03-08T07:45:49.207Z,202.35
2023-03-08T07:48:17.904Z,27.42
2023-03-08T07:50:46.825Z,26.98
2023-03-08T07:53:15.927Z,20.95
2023-03-08T07:55:44.923Z,25.52
2023-03-08T07:58:14.336Z,22.00
2023-03-08T08:00:43.078Z,24.33
2023-03-08T08:03:11.822Z,19.25
2023-03-08T08:05:40.678Z,18.30
2023-03-08T08:08:10.918Z,24.00
2023-03-08T08:10:39.821Z,20.23
2023-03-08T08:13:08.961Z,14.00
2023-03-08T08:15:37.774Z,13.90
2023-03-08T08:18:06.536Z,14.20
2023-03-08T08:20:35.375Z,10.05
2023-03-08T08:23:07.335Z,11.30
2023-03-08T08:25:41.352Z,18.58
2023-03-08T08:28:10.078Z,18.50
2023-03-08T08:30:38.941Z,11.23
2023-03-08T08:33:07.841Z,11.27
2023-03-08T08:35:43.041Z,19.60
2023-03-08T08:38:12.551Z,30.63
2023-03-08T08:40:41.613Z,10.10
2023-03-08T08:43:10.392Z,13.23
2023-03-08T08:45:47.432Z,9.25
2023-03-08T08:48:16.699Z,9.82
2023-03-08T08:50:45.635Z,13.05
2023-03-08T08:53:14.745Z,20.40
2023-03-08T08:55:45.543Z,11.90
2023-03-08T08:58:16.518Z,19.95
2023-03-08T09:00:45.980Z,23.63
2023-03-08T09:03:14.634Z,24.23
2023-03-08T09:05:46.060Z,20.65
2023-03-08T09:08:14.786Z,24.52
2023-03-08T09:10:43.579Z,27.83
2023-03-08T09:13:13.011Z,27.30
2023-03-08T09:15:41.870Z,20.17
2023-03-08T09:18:10.710Z,25.58
2023-03-08T09:20:39.493Z,20.73
2023-03-08T09:23:09.319Z,16.00
2023-03-08T09:25:38.315Z,17.20
2023-03-08T09:28:07.018Z,13.05
2023-03-08T09:30:35.864Z,19.75
2023-03-08T09:33:04.994Z,13.27
2023-03-08T09:35:33.526Z,13.85
2023-03-08T09:38:02.846Z,17.75
2023-03-08T09:40:49.239Z,13.95
2023-03-08T09:43:31.666Z,14.75
2023-03-08T09:46:01.271Z,13.82
2023-03-08T09:48:31.962Z,14.88
2023-03-08T09:51:08.492Z,14.90
2023-03-08T09:53:44.770Z,15.32
2023-03-08T09:56:39.880Z,15.20
2023-03-08T09:59:22.231Z,16.25
2023-03-08T10:02:14.410Z,14.57
2023-03-08T10:05:11.414Z,13.63
2023-03-08T10:07:50.844Z,16.30
2023-03-08T10:10:35.071Z,17.33
2023-03-08T10:13:07.029Z,19.02
2023-03-08T10:15:46.812Z,13.82
2023-03-08T10:18:40.190Z,20.83
2023-03-08T10:21:14.411Z,20.98
2023-03-08T10:23:43.386Z,17.52
2023-03-08T10:26:14.308Z,14.35
2023-03-08T10:28:43.249Z,18.55
2023-03-08T10:31:26.304Z,18.15
2023-03-08T10:34:18.403Z,13.50
2023-03-08T10:36:49.664Z,14.98
2023-03-08T10:39:19.414Z,16.60
2023-03-08T10:41:55.598Z,17.23
2023-03-08T10:44:43.540Z,19.13
2023-03-08T10:47:31.013Z,17.15
2023-03-08T10:50:21.147Z,14.73
2023-03-08T10:52:51.779Z,17.45
2023-03-08T10:55:27.883Z,19.00
2023-03-08T10:58:00.359Z,15.88
2023-03-08T11:00:40.160Z,18.23
2023-03-08T11:03:16.004Z,18.80
2023-03-08T11:05:56.939Z,16.10
2023-03-08T11:08:51.621Z,19.10
2023-03-08T11:11:20.358Z,18.20
2023-03-08T11:13:53.426Z,17.33
2023-03-08T11:17:17.616Z,17.90
2023-03-08T11:20:14.489Z,14.93
2023-03-08T11:23:10.293Z,17.23
2023-03-08T11:26:10.457Z,15.02
2023-03-08T11:29:15.446Z,12.98
2023-03-08T11:32:06.102Z,17.00
2023-03-08T11:35:02.532Z,19.65
2023-03-08T11:37:57.977Z,16.20
2023-03-08T11:40:30.543Z,24.00
2023-03-08T11:43:22.799Z,18.92
2023-03-08T11:46:20.547Z,19.15
2023-03-08T11:48:58.874Z,20.95
2023-03-08T11:51:37.383Z,21.30
2023-03-08T11:54:14.678Z,21.27
2023-03-08T11:56:57.741Z,20.60
2023-03-08T11:59:39.958Z,19.27
2023-03-08T12:02:08.866Z,21.23
2023-03-08T12:04:48.940Z,19.15
2023-03-08T12:07:41.593Z,24.20
2023-03-08T12:10:30.158Z,20.08
2023-03-08T12:13:19.455Z,21.67
2023-03-08T12:16:11.073Z,23.83
2023-03-08T12:19:00.941Z,26.85
2023-03-08T12:22:23.342Z,18.67
2023-03-08T12:25:16.797Z,20.23
2023-03-08T12:27:49.337Z,20.42
2023-03-08T12:30:35.050Z,25.25
2023-03-08T12:33:06.347Z,22.42
2023-03-08T12:35:50.126Z,22.52
2023-03-08T12:38:18.925Z,23.77
2023-03-08T12:40:53.281Z,32.13
2023-03-08T12:43:22.185Z,26.80
2023-03-08T12:46:10.725Z,24.38
2023-03-08T12:48:45.308Z,27.75
2023-03-08T12:51:14.108Z,31.83
2023-03-08T12:53:51.759Z,25.63
2023-03-08T12:56:25.247Z,25.17
2023-03-08T12:58:55.793Z,30.00
2023-03-08T13:01:35.804Z,28.83
2023-03-08T13:04:42.905Z,31.73
2023-03-08T13:07:35.324Z,32.30
2023-03-08T13:10:20.771Z,39.25
2023-03-08T13:12:50.854Z,39.33
2023-03-08T13:15:25.213Z,30.92
2023-03-08T13:18:00.397Z,35.78
2023-03-08T13:20:42.047Z,35.88
2023-03-08T13:23:16.761Z,38.97
2023-03-08T13:26:06.727Z,38.67
2023-03-08T13:28:47.027Z,44.13
2023-03-08T13:31:23.338Z,37.15
2023-03-08T13:33:56.166Z,32.55
2023-03-08T13:36:33.370Z,33.17
2023-03-08T13:39:08.926Z,30.25
2023-03-08T13:41:44.679Z,42.15
2023-03-08T13:44:27.227Z,36.65
2023-03-08T13:46:59.325Z,36.50
2023-03-08T13:49:42.804Z,39.88
2023-03-08T13:52:22.971Z,39.80
2023-03-08T13:54:58.385Z,36.35
2023-03-08T13:57:34.246Z,37.28
2023-03-08T14:00:21.720Z,37.35
2023-03-08T14:02:52.225Z,40.22
2023-03-08T14:05:24.517Z,41.35
2023-03-08T14:08:03.952Z,40.30
2023-03-08T14:10:45.018Z,42.95
2023-03-08T14:13:43.394Z,38.95
2023-03-08T14:16:44.648Z,40.85
2023-03-08T14:19:39.251Z,36.95
2023-03-08T14:22:17.884Z,36.28
2023-03-08T14:24:57.026Z,41.25
2023-03-08T14:27:39.508Z,35.13
2023-03-08T14:30:16.208Z,36.75
2023-03-08T14:33:01.220Z,37.53
2023-03-08T14:38:01.474Z,35.75
2023-03-08T14:40:32.128Z,39.83
2023-03-08T14:43:08.188Z,34.00
2023-03-08T14:45:41.226Z,47.20
2023-03-08T14:48:24.764Z,43.17
2023-03-08T14:50:56.466Z,145.95
2023-03-08T14:53:53.705Z,209.10
2023-03-08T14:56:22.503Z,149.90
2023-03-08T14:58:52.916Z,190.30
2023-03-08T15:01:30.712Z,295.73
2023-03-08T15:04:00.260Z,265.30
2023-03-08T15:06:36.038Z,353.48
2023-03-08T15:09:09.637Z,291.38
2023-03-08T15:11:38.473Z,264.10
2023-03-08T15:14:07.224Z,195.00
2023-03-08T15:16:36.362Z,161.07
2023-03-08T15:19:05.156Z,101.65
2023-03-08T15:21:35.662Z,53.20
2023-03-08T15:24:04.737Z,41.35
2023-03-08T15:26:33.640Z,41.03
2023-03-08T15:29:05.969Z,40.42
2023-03-08T15:31:34.787Z,40.58
2023-03-08T15:34:04.535Z,36.97
2023-03-08T15:36:36.354Z,38.78
2023-03-08T15:39:05.246Z,35.75
2023-03-08T15:41:34.201Z,35.58
2023-03-08T15:44:03.823Z,33.08
2023-03-08T15:46:32.727Z,32.60
2023-03-08T15:49:01.356Z,28.88
2023-03-08T15:51:36.391Z,34.63
2023-03-08T15:54:07.073Z,31.67
2023-03-08T15:56:35.975Z,34.63
2023-03-08T15:59:04.834Z,36.72
2023-03-08T16:01:34.122Z,32.58
2023-03-08T16:04:02.966Z,34.90
2023-03-08T16:06:32.695Z,33.45
2023-03-08T16:09:01.406Z,36.70
2023-03-08T16:11:32.327Z,38.38
2023-03-08T16:14:01.910Z,36.20
2023-03-08T16:16:44.368Z,30.60
2023-03-08T16:19:15.330Z,33.55
2023-03-08T16:21:43.867Z,25.60
2023-03-08T16:24:12.838Z,30.02
2023-03-08T16:26:41.773Z,29.13
2023-03-08T16:29:10.757Z,29.38
2023-03-08T16:31:39.438Z,30.30
2023-03-08T16:34:08.422Z,29.95
2023-03-08T16:36:36.879Z,32.53
2023-03-08T16:39:07.625Z,31.98
2023-03-08T16:41:37.962Z,34.47
2023-03-08T16:44:07.735Z,30.23
2023-03-08T16:46:37.424Z,34.28
2023-03-08T16:49:06.426Z,33.25
2023-03-08T16:51:38.109Z,34.15
2023-03-08T16:54:07.295Z,32.22
2023-03-08T16:56:36.482Z,34.25
2023-03-08T16:59:05.549Z,35.28
2023-03-08T17:01:34.728Z,34.88
2023-03-08T17:04:04.053Z,35.78
2023-03-08T17:06:33.794Z,37.45
2023-03-08T17:09:03.399Z,35.55
2023-03-08T17:11:35.152Z,35.70
2023-03-08T17:14:09.773Z,40.85
2023-03-08T17:16:40.358Z,40.05
2023-03-08T17:19:10.309Z,39.35
2023-03-08T17:21:39.629Z,44.00
2023-03-08T17:24:12.146Z,36.90
2023-03-08T17:26:49.201Z,42.70
2023-03-08T17:29:18.703Z,45.10
2023-03-08T17:31:48.548Z,37.08
2023-03-08T17:34:18.463Z,35.38
2023-03-08T17:36:47.398Z,37.53
2023-03-08T17:39:16.592Z,43.45
2023-03-08T17:41:45.490Z,44.70
2023-03-08T17:44:15.222Z,42.72
2023-03-08T17:46:43.861Z,45.83
2023-03-08T17:49:13.936Z,37.80
2023-03-08T17:51:43.146Z,38.42
2023-03-08T17:54:12.586Z,37.20
2023-03-08T17:56:41.809Z,35.40
2023-03-08T17:59:15.613Z,32.10
2023-03-08T18:01:45.177Z,26.73
2023-03-08T18:04:13.985Z,28.63
2023-03-08T18:06:44.046Z,26.58
2023-03-08T18:09:17.097Z,25.70
2023-03-08T18:11:46.152Z,25.02
2023-03-08T18:14:16.410Z,27.23
2023-03-08T18:16:46.116Z,23.95
2023-03-08T18:19:17.131Z,29.50
2023-03-08T18:21:50.481Z,28.73
2023-03-08T18:24:25.218Z,25.30
2023-03-08T18:26:54.937Z,27.05
2023-03-08T18:29:23.509Z,28.00
2023-03-08T18:31:53.748Z,31.40
2023-03-08T18:34:22.508Z,35.00
2023-03-08T18:36:51.273Z,32.85
2023-03-08T18:39:20.110Z,31.55
2023-03-08T18:41:48.947Z,29.77
2023-03-08T18:44:18.345Z,33.55
2023-03-08T18:46:46.956Z,30.67
2023-03-08T18:49:16.624Z,29.95
2023-03-08T18:51:48.664Z,29.33
2023-03-08T18:54:21.284Z,30.15
2023-03-08T18:56:58.128Z,28.13
2023-03-08T18:59:28.780Z,31.40
2023-03-08T19:01:57.354Z,27.65
2023-03-08T19:04:26.826Z,26.30
2023-03-08T19:06:55.410Z,25.05
2023-03-08T19:09:24.966Z,23.15
2023-03-08T19:11:54.148Z,24.80
2023-03-08T19:14:22.831Z,26.80
2023-03-08T19:16:51.566Z,25.30
2023-03-08T19:19:20.496Z,23.23
2023-03-08T19:21:49.922Z,21.25
2023-03-08T19:24:20.332Z,21.45
2023-03-08T19:26:52.058Z,21.50
2023-03-08T19:29:24.721Z,19.08
2023-03-08T19:31:56.373Z,24.60
2023-03-08T19:34:31.973Z,22.77
2023-03-08T19:37:01.211Z,20.52
2023-03-08T19:39:32.912Z,20.13
2023-03-08T19:42:07.557Z,22.02
2023-03-08T19:44:37.651Z,20.60
2023-03-08T19:47:07.323Z,20.10
2023-03-08T19:49:38.513Z,25.25
2023-03-08T19:52:08.570Z,20.73
2023-03-08T19:54:37.314Z,20.60
2023-03-08T19:57:06.513Z,23.58
2023-03-08T19:59:37.411Z,21.35
2023-03-08T20:02:08.516Z,28.05
2023-03-08T20:04:37.314Z,22.25
2023-03-08T20:07:05.998Z,27.75
2023-03-08T20:09:34.565Z,22.17
2023-03-08T20:12:03.235Z,21.60
2023-03-08T20:14:31.852Z,19.23
2023-03-08T20:17:02.110Z,17.80
2023-03-08T20:19:32.500Z,21.33
2023-03-08T20:22:02.236Z,27.02
2023-03-08T20:24:31.259Z,31.75
2023-03-08T20:27:00.131Z,25.67
2023-03-08T20:29:28.740Z,20.60
2023-03-08T20:31:58.910Z,23.30
2023-03-08T20:34:28.387Z,25.52
2023-03-08T20:36:57.088Z,30.80
2023-03-08T20:39:25.650Z,25.83
2023-03-08T20:41:57.472Z,32.13
2023-03-08T20:44:26.029Z,37.78
2023-03-08T20:46:54.941Z,21.50
2023-03-08T20:49:23.575Z,17.50
2023-03-08T20:51:51.993Z,19.23
2023-03-08T20:54:20.555Z,21.48
2023-03-08T20:56:49.553Z,18.35
2023-03-08T20:59:20.930Z,19.00
2023-03-08T21:01:50.074Z,18.70
2023-03-08T21:04:19.197Z,18.42
2023-03-08T21:06:48.784Z,24.55
2023-03-08T21:09:17.690Z,18.35
2023-03-08T21:11:46.230Z,16.40
2023-03-08T21:14:14.789Z,15.27
2023-03-08T21:16:44.185Z,16.42
2023-03-08T21:19:12.795Z,16.52
2023-03-08T21:21:44.582Z,20.55
2023-03-08T21:24:18.457Z,14.80
2023-03-08T21:26:47.214Z,19.13
2023-03-08T21:29:18.376Z,17.25
2023-03-08T21:31:51.833Z,13.75
2023-03-08T21:34:21.526Z,16.20
2023-03-08T21:36:50.698Z,18.35
2023-03-08T21:39:20.489Z,14.80
2023-03-08T21:41:50.488Z,18.20
2023-03-08T21:44:21.285Z,17.92
2023-03-08T21:46:52.417Z,15.00
2023-03-08T21:49:31.268Z,16.20
2023-03-08T21:52:00.233Z,15.32
2023-03-08T21:54:30.908Z,13.98
2023-03-08T21:56:59.906Z,32.35
2023-03-08T21:59:30.004Z,14.85
2023-03-08T22:01:59.554Z,14.00
2023-03-08T22:04:29.719Z,16.95
2023-03-08T22:07:00.953Z,15.13
2023-03-08T22:09:29.951Z,13.75
2023-03-08T22:11:59.896Z,19.52
2023-03-08T22:14:30.431Z,15.93
2023-03-08T22:17:01.321Z,13.68
2023-03-08T22:19:30.206Z,16.13
2023-03-08T22:21:59.674Z,18.52
2023-03-08T22:24:28.389Z,15.77
2023-03-08T22:26:56.978Z,13.35
2023-03-08T22:29:25.577Z,15.20
2023-03-08T22:31:54.515Z,12.13
2023-03-08T22:34:23.495Z,15.50
2023-03-08T22:36:52.777Z,15.48
2023-03-08T22:39:21.583Z,17.05
2023-03-08T22:41:50.339Z,17.23
2023-03-08T22:44:19.143Z,19.67
2023-03-08T22:46:48.030Z,11.75
2023-03-08T22:49:17.189Z,16.15
2023-03-08T22:51:48.525Z,15.80
2023-03-08T22:54:19.340Z,14.27
2023-03-08T22:56:49.894Z,23.02
2023-03-08T22:59:19.199Z,13.05
2023-03-08T23:01:48.071Z,16.50
2023-03-08T23:04:16.790Z,12.93
2023-03-08T23:06:48.399Z,15.82
2023-03-08T23:09:17.794Z,11.98
2023-03-08T23:11:47.898Z,28.77
2023-03-08T23:14:17.118Z,27.00
2023-03-08T23:16:47.452Z,15.75
2023-03-08T23:19:20.338Z,27.55
2023-03-08T23:21:50.116Z,13.73
2023-03-08T23:24:19.008Z,14.23
2023-03-08T23:26:48.281Z,14.23
2023-03-08T23:29:17.169Z,15.00
2023-03-08T23:31:47.641Z,24.48
2023-03-08T23:34:19.138Z,14.40
2023-03-08T23:36:47.897Z,15.95
2023-03-08T23:39:16.554Z,22.73
2023-03-08T23:41:46.044Z,19.15
2023-03-08T23:44:14.839Z,26.42
2023-03-08T23:46:46.717Z,23.90
2023-03-08T23:49:17.737Z,12.52
2023-03-08T23:51:46.896Z,17.85
2023-03-08T23:54:15.640Z,17.58
2023-03-08T23:56:44.462Z,14.80
2023-03-08T23:59:19.313Z,14.27
